Map

Track Data

SID SEASON NUMBER BASIN SUBBASIN NAME ISO_TIME NATURE LAT LON WMO_WIND WMO_PRES WMO_AGENCY TRACK_TYPE DIST2LAND LANDFALL IFLAG USA_AGENCY USA_ATCF_ID USA_LAT USA_LON USA_RECORD USA_STATUS USA_WIND USA_PRES USA_SSHS USA_R34_NE USA_R34_SE USA_R34_SW USA_R34_NW USA_R50_NE USA_R50_SE USA_R50_SW USA_R50_NW USA_R64_NE USA_R64_SE USA_R64_SW USA_R64_NW USA_POCI USA_ROCI USA_RMW USA_EYE TOKYO_LAT TOKYO_LON TOKYO_GRADE TOKYO_WIND TOKYO_PRES TOKYO_R50_DIR TOKYO_R50_LONG TOKYO_R50_SHORT TOKYO_R30_DIR TOKYO_R30_LONG TOKYO_R30_SHORT TOKYO_LAND CMA_LAT CMA_LON CMA_CAT CMA_WIND CMA_PRES HKO_LAT HKO_LON HKO_CAT HKO_WIND HKO_PRES NEWDELHI_LAT NEWDELHI_LON NEWDELHI_GRADE NEWDELHI_WIND NEWDELHI_PRES NEWDELHI_CI NEWDELHI_DP NEWDELHI_POCI REUNION_LAT REUNION_LON REUNION_TYPE REUNION_WIND REUNION_PRES REUNION_TNUM REUNION_CI REUNION_RMW REUNION_R34_NE REUNION_R34_SE REUNION_R34_SW REUNION_R34_NW REUNION_R50_NE REUNION_R50_SE REUNION_R50_SW REUNION_R50_NW REUNION_R64_NE REUNION_R64_SE REUNION_R64_SW REUNION_R64_NW BOM_LAT BOM_LON BOM_TYPE BOM_WIND BOM_PRES BOM_TNUM BOM_CI BOM_RMW BOM_R34_NE BOM_R34_SE BOM_R34_SW BOM_R34_NW BOM_R50_NE BOM_R50_SE BOM_R50_SW BOM_R50_NW BOM_R64_NE BOM_R64_SE BOM_R64_SW BOM_R64_NW BOM_ROCI BOM_POCI BOM_EYE BOM_POS_METHOD BOM_PRES_METHOD NADI_LAT NADI_LON NADI_CAT NADI_WIND NADI_PRES WELLINGTON_LAT WELLINGTON_LON WELLINGTON_WIND WELLINGTON_PRES DS824_LAT DS824_LON DS824_STAGE DS824_WIND DS824_PRES TD9636_LAT TD9636_LON TD9636_STAGE TD9636_WIND TD9636_PRES TD9635_LAT TD9635_LON TD9635_WIND TD9635_PRES TD9635_ROCI NEUMANN_LAT NEUMANN_LON NEUMANN_CLASS NEUMANN_WIND NEUMANN_PRES MLC_LAT MLC_LON MLC_CLASS MLC_WIND MLC_PRES USA_GUST BOM_GUST BOM_GUST_PER REUNION_GUST REUNION_GUST_PER USA_SEAHGT USA_SEARAD_NE USA_SEARAD_SE USA_SEARAD_SW USA_SEARAD_NW STORM_SPEED STORM_DIR
1962350S04089 1963 111 SI MM CECILE 1962-12-16 00:00:00 TS -4.00000 89.0000 main 1057 1057 O________OO___ jtwc_sh SH051963 -4.00000 89.0000 35 0 -4.00000 89.0000 TC 35 -4.00000 89.0000 1 18 236
1962350S04089 1963 111 SI MM CECILE 1962-12-16 03:00:00 TS -4.50309 88.2493 main 1160 1160 P________PP___ SH051963 -4.49767 88.2477 35 0 -4.49767 88.2477 TC 35 -4.51936 88.2542 1 18 236
1962350S04089 1963 111 SI MM CECILE 1962-12-16 06:00:00 TS -5.00769 87.5016 main 1255 1255 O________OP___ jtwc_sh SH051963 -5.00000 87.5000 35 0 -5.00000 87.5000 TC 35 -5.03078 87.5063 1 18 236
1962350S04089 1963 111 SI MM CECILE 1962-12-16 09:00:00 TS -5.51222 86.7568 main 1351 1351 P________PP___ SH051963 -5.50738 86.7574 35 0 -5.50738 86.7574 TC 35 -5.52677 86.7552 1 18 236
1962350S04089 1963 111 SI MM CECILE 1962-12-16 12:00:00 TS -6.00000 86.0000 main 1454 1454 O________OO___ jtwc_sh SH051963 -6.00000 86.0000 35 0 -6.00000 86.0000 TC 35 -6.00000 86.0000 1 18 238
1962350S04089 1963 111 SI MM CECILE 1962-12-16 15:00:00 TS -6.45495 85.2149 main 1480 1476 P________PP___ SH051963 -6.45741 85.2073 35 0 -6.45741 85.2073 TC 35 -6.44759 85.2377 1 18 240
1962350S04089 1963 111 SI MM CECILE 1962-12-16 18:00:00 TS -6.89604 84.4146 main 1495 1492 O________OP___ jtwc_sh SH051963 -6.90000 84.4000 35 0 -6.90000 84.4000 TC 35 -6.88416 84.4584 1 18 241
1962350S04089 1963 111 SI MM CECILE 1962-12-16 21:00:00 TS -7.33322 83.6291 main 1516 1516 P________PP___ SH051963 -7.33474 83.6221 32 -1 -7.33474 83.6221 TC 32 -7.32866 83.6499 1 18 240
1962350S04089 1963 111 SI MM CECILE 1962-12-17 00:00:00 TS -7.80000 82.8294 main 1554 1554 O________OO___ jtwc_sh SH051963 -7.80000 82.8000 30 -1 -7.80000 82.8000 TC 30 -7.80000 82.8000 2 35 20 239
1962350S04089 1963 111 SI MM CECILE 1962-12-17 03:00:00 TS -8.34292 81.9031 main 1597 1597 P________PP___ SH051963 -8.33493 81.8724 30 -1 -8.33493 81.8724 TC 30 -8.35842 81.8376 2 35 22 239
1962350S04089 1963 111 SI MM CECILE 1962-12-17 06:00:00 TS -8.91043 80.9254 main 1658 1658 O________OP___ jtwc_sh SH051963 -8.90000 80.9000 30 -1 -8.90000 80.9000 TC 30 -8.93855 80.8418 2 35 23 240
1962350S04089 1963 111 SI MM CECILE 1962-12-17 09:00:00 TS -9.48031 79.9309 main 1727 1727 P________PP___ SH051963 -9.48006 79.9052 30 -1 -9.48006 79.9052 TC 30 -9.49926 79.8749 2 35 22 240
1962350S04089 1963 111 SI MM CECILE 1962-12-17 12:00:00 TS -10.0000 79.0000 main 1790 1790 O________OO___ jtwc_sh SH051963 -10.0000 79.0000 30 -1 -10.0000 79.0000 TC 30 -10.0000 79.0000 2 35 19 241
1962350S04089 1963 111 SI MM CECILE 1962-12-17 15:00:00 TS -10.4153 78.2301 main 1845 1845 P________PP___ SH051963 -10.3871 78.2896 27 -1 -10.3871 78.2896 TC 27 -10.3918 78.3262 2 16 242
1962350S04089 1963 111 SI MM CECILE 1962-12-17 18:00:00 TS -10.7670 77.5619 main 1900 1900 O________OP___ jtwc_sh SH051963 -10.7000 77.7000 25 -1 -10.7000 77.7000 TC 25 -10.7224 77.7455 2 14 242
1962350S04089 1963 111 SI MM CECILE 1962-12-17 21:00:00 TS -11.0922 76.9592 main 1946 1946 P________PP___ SH051963 -10.9995 77.1796 25 -1 -10.9995 77.1796 TC 25 -11.0169 77.1920 2 14 242
1962350S04089 1963 111 SI MM CECILE 1962-12-18 00:00:00 TS -11.4000 76.3400 main 1996 1996 O________OO___ jtwc_sh SH051963 -11.3000 76.6000 25 -1 -11.3000 76.6000 TC 25 -11.3000 76.6000 7 15 245
1962350S04089 1963 111 SI MM CECILE 1962-12-18 03:00:00 TS -11.7358 75.5594 main 2048 2037 P________PP___ SH051963 -11.6578 75.7727 22 -1 -11.6578 75.7727 TC 22 -11.6451 75.7830 7 17 247
1962350S04089 1963 111 SI MM CECILE 1962-12-18 06:00:00 TS -12.0445 74.7715 main 2037 1954 O________OP___ jtwc_sh SH051963 -12.0000 74.9000 20 -1 -12.0000 74.9000 TC 20 -11.9770 74.9315 7 16 249
1962350S04089 1963 111 SI MM CECILE 1962-12-18 09:00:00 TS -12.3031 74.0625 main 1954 1887 P________PP___ SH051963 -12.2875 74.1100 20 -1 -12.2875 74.1100 TC 20 -12.2702 74.1391 7 13 250
1962350S04089 1963 111 SI MM CECILE 1962-12-18 12:00:00 TS -12.5000 73.5000 main 1887 1853 O________OO___ jtwc_sh SH051963 -12.5000 73.5000 20 -1 -12.5000 73.5000 TC 20 -12.5000 73.5000 7 10 249
1962350S04089 1963 111 SI MM CECILE 1962-12-18 15:00:00 TS -12.6382 73.1481 main 1843 1819 P________PP___ SH051963 -12.6297 73.1673 17 -1 -12.6297 73.1673 TC 17 -12.6422 73.1500 7 6 248
1962350S04089 1963 111 SI MM CECILE 1962-12-18 18:00:00 TS -12.7251 72.9333 main 1819 1804 O________OP___ jtwc_sh SH051963 -12.7000 73.0000 15 -1 -12.7000 73.0000 TC 15 -12.7232 72.9564 7 4 248
1962350S04089 1963 111 SI MM CECILE 1962-12-18 21:00:00 TS -12.7918 72.7567 main 1804 1785 P________PP___ SH051963 -12.7574 72.8575 15 -1 -12.7574 72.8575 TC 15 -12.7677 72.8347 7 4 252
1962350S04089 1963 111 SI MM CECILE 1962-12-19 00:00:00 TS -12.8400 72.5800 main 1785 1751 O________OO___ jtwc_sh SH051963 -12.8000 72.7000 15 -1 -12.8000 72.7000 TC 15 -12.8000 72.7000 7 4 257
1962350S04089 1963 111 SI MM CECILE 1962-12-19 03:00:00 TS -12.8906 72.3118 main 1751 1723 P________PP___ SH051963 -12.8500 72.4225 12 -1 -12.8500 72.4225 TC 12 -12.8655 72.4044 7 6 260
1962350S04089 1963 111 SI MM CECILE 1962-12-19 06:00:00 TS -12.9326 72.0229 main 1723 1699 O________OP___ jtwc_sh SH051963 -12.9000 72.1000 10 -1 -12.9000 72.1000 TC 10 -12.9228 72.0851 7 6 262
1962350S04089 1963 111 SI MM CECILE 1962-12-19 09:00:00 TS -12.9729 71.7427 main 1689 1670 P________PP___ SH051963 -12.9575 71.7775 10 -1 -12.9575 71.7775 TC 10 -12.9686 71.7732 7 5 262
1962350S04089 1963 111 SI MM CECILE 1962-12-19 12:00:00 TS -13.0000 71.5000 main 1670 1652 O________OO___ jtwc_sh SH051963 -13.0000 71.5000 10 -1 -13.0000 71.5000 TC 10 -13.0000 71.5000 7 4 265
1962350S04089 1963 111 SI MM CECILE 1962-12-19 15:00:00 TS -13.0073 71.3288 main 1652 1642 P________PP___ SH051963 -13.0074 71.3275 10 -1 -13.0074 71.3275 TC 10 -13.0142 71.2987 7 3 269
1962350S04089 1963 111 SI MM CECILE 1962-12-19 18:00:00 TS -13.0029 71.1942 main 1642 1633 O________OP___ jtwc_sh SH051963 -13.0000 71.2000 10 -1 -13.0000 71.2000 TC 10 -13.0148 71.1399 7 3 271
1962350S04089 1963 111 SI MM CECILE 1962-12-19 21:00:00 TS -13.0016 71.0486 main 1624 1614 P________PP___ SH051963 -13.0000 71.0425 10 -1 -13.0000 71.0425 TC 10 -13.0080 71.0112 7 3 271
1962350S04089 1963 111 SI MM CECILE 1962-12-20 00:00:00 TS -13.0000 70.9163 main 1614 1605 O________OO___ jtwc_sh SH051963 -13.0000 70.9000 10 -1 -13.0000 70.9000 TC 10 -13.0000 70.9000 7 2 270
1962350S04089 1963 111 SI MM CECILE 1962-12-20 03:00:00 TS -13.0000 70.8055 main 1605 1596 P________PP___ SH051963 -13.0000 70.7925 12 -1 -13.0000 70.7925 TC 12 -12.9999 70.7897 7 2 270
1962350S04089 1963 111 SI MM CECILE 1962-12-20 06:00:00 TS -13.0000 70.7066 main 1596 1587 O________OP___ jtwc_sh SH051963 -13.0000 70.7000 15 -1 -13.0000 70.7000 TC 15 -12.9999 70.6925 7 2 270
1962350S04089 1963 111 SI MM CECILE 1962-12-20 09:00:00 TS -13.0000 70.6040 main 1587 1578 P________PP___ SH051963 -13.0000 70.6000 15 -1 -13.0000 70.6000 TC 15 -12.9999 70.5991 7 2 270
1962350S04089 1963 111 SI MM CECILE 1962-12-20 12:00:00 TS -13.0000 70.5000 main 1578 1568 O________OO___ jtwc_sh SH051963 -13.0000 70.5000 15 -1 -13.0000 70.5000 TC 15 -13.0000 70.5000 1 10 2 270
1962350S04089 1963 111 SI MM CECILE 1962-12-20 15:00:00 TS -13.0000 70.3959 main 1568 1559 P________PP___ SH051963 -13.0000 70.4075 15 -1 -13.0000 70.4075 TC 15 -13.0000 70.3822 1 10 2 270
1962350S04089 1963 111 SI MM CECILE 1962-12-20 18:00:00 TS -13.0000 70.2815 main 1559 1541 O________OP___ jtwc_sh SH051963 -13.0000 70.3000 15 -1 -13.0000 70.3000 TC 15 -13.0000 70.2575 1 10 2 270
1962350S04089 1963 111 SI MM CECILE 1962-12-20 21:00:00 TS -13.0000 70.1408 main 1541 1532 P________PP___ SH051963 -13.0000 70.1500 15 -1 -13.0000 70.1500 TC 15 -13.0000 70.1291 1 10 3 270
1962350S04089 1963 111 SI MM CECILE 1962-12-21 00:00:00 TS -13.0000 70.0000 main 1532 1523 O________OO___ jtwc_sh SH051963 -13.0000 70.0000 15 -1 -13.0000 70.0000 TC 15 -13.0000 70.0000 1 10 2 270
1962350S04089 1963 111 SI MM CECILE 1962-12-21 03:00:00 TS -13.0000 69.8900 main 1523 1514 P________PP___ SH051963 -13.0000 69.9000 15 -1 -13.0000 69.9000 TC 15 -13.0000 69.8750 1 11 2 270
1962350S04089 1963 111 SI MM CECILE 1962-12-21 06:00:00 TS -13.0000 69.7800 main 1514 1496 O________OP___ jtwc_sh SH051963 -13.0000 69.8000 15 -1 -13.0000 69.8000 TC 15 -13.0000 69.7500 1 12 2 270
1962350S04089 1963 111 SI MM CECILE 1962-12-21 09:00:00 TS -13.0000 69.6400 main 1496 1486 P________PP___ SH051963 -13.0000 69.6500 15 -1 -13.0000 69.6500 TC 15 -13.0000 69.6250 1 13 3 270
1962350S04089 1963 111 SI MM CECILE 1962-12-21 12:00:00 TS -13.0000 69.5000 main 1486 1478 O________OO___ jtwc_sh SH051963 -13.0000 69.5000 15 -1 -13.0000 69.5000 TC 15 -13.0000 69.5000 1 15 2 270
1962350S04089 1963 111 SI MM CECILE 1962-12-21 15:00:00 TS -13.0000 69.3900 main 1478 1469 P________PP___ SH051963 -13.0000 69.4000 15 -1 -13.0000 69.4000 TC 15 -13.0000 69.3750 1 15 2 270
1962350S04089 1963 111 SI MM CECILE 1962-12-21 18:00:00 TS -13.0000 69.2800 main 1469 1451 O________OP___ jtwc_sh SH051963 -13.0000 69.3000 15 -1 -13.0000 69.3000 TC 15 -13.0000 69.2500 1 15 2 270
1962350S04089 1963 111 SI MM CECILE 1962-12-21 21:00:00 TS -13.0000 69.1400 main 1451 1442 P________PP___ SH051963 -13.0000 69.1500 15 -1 -13.0000 69.1500 TC 15 -13.0000 69.1250 1 15 3 270
1962350S04089 1963 111 SI MM CECILE 1962-12-22 00:00:00 TS -13.0000 69.0000 main 1442 1433 O________OO___ jtwc_sh SH051963 -13.0000 69.0000 15 -1 -13.0000 69.0000 TC 15 -13.0000 69.0000 1 15 2 270
1962350S04089 1963 111 SI MM CECILE 1962-12-22 03:00:00 TS -12.9983 68.8924 main 1433 1424 P________PP___ SH051963 -13.0000 68.9000 15 -1 -13.0000 68.9000 TC 15 -12.9918 68.8871 1 15 2 271
1962350S04089 1963 111 SI MM CECILE 1962-12-22 06:00:00 TS -12.9970 68.7845 main 1424 1415 O________OP___ jtwc_sh SH051963 -13.0000 68.8000 15 -1 -13.0000 68.8000 TC 15 -12.9849 68.7724 1 15 2 271
1962350S04089 1963 111 SI MM CECILE 1962-12-22 09:00:00 TS -12.9926 68.6533 main 1415 1398 P________PP___ SH051963 -12.9925 68.6650 17 -1 -12.9925 68.6650 TC 17 -12.9855 68.6465 1 15 3 269
1962350S04089 1963 111 SI MM CECILE 1962-12-22 12:00:00 TS -13.0000 68.5000 main 1398 1380 O________OO___ jtwc_sh SH051963 -13.0000 68.5000 20 -1 -13.0000 68.5000 TC 20 -13.0000 68.5000 1 15 3 264
1962350S04089 1963 111 SI MM CECILE 1962-12-22 15:00:00 TS -13.0277 68.3270 main 1380 1365 P________PP___ SH051963 -13.0425 68.3075 20 -1 -13.0425 68.3075 TC 20 -13.0316 68.3175 1 15 4 259
1962350S04089 1963 111 SI MM CECILE 1962-12-22 18:00:00 TS -13.0680 68.1405 main 1356 1347 O________OP___ jtwc_sh SH051963 -13.1000 68.1000 20 -1 -13.1000 68.1000 TC 20 -13.0776 68.1150 1 15 4 257
1962350S04089 1963 111 SI MM CECILE 1962-12-22 21:00:00 TS -13.1097 67.9487 main 1339 1323 P________PP___ SH051963 -13.1500 67.8925 20 -1 -13.1500 67.8925 TC 20 -13.1347 67.9050 1 15 4 256
1962350S04089 1963 111 SI MM CECILE 1962-12-23 00:00:00 TS -13.1600 67.7600 main 1323 1306 O________OO___ jtwc_sh SH051963 -13.2000 67.7000 20 -1 -13.2000 67.7000 TC 20 -13.2000 67.7000 1 15 4 253
1962350S04089 1963 111 SI MM CECILE 1962-12-23 03:00:00 TS -13.2160 67.5980 main 1306 1282 P________PP___ SH051963 -13.2425 67.5500 20 -1 -13.2425 67.5500 TC 20 -13.2634 67.5583 1 16 3 248
1962350S04089 1963 111 SI MM CECILE 1962-12-23 06:00:00 TS -13.2894 67.4295 main 1282 1267 O________OP___ jtwc_sh SH051963 -13.3000 67.4000 20 -1 -13.3000 67.4000 TC 20 -13.3345 67.4172 1 17 4 243
1962350S04089 1963 111 SI MM CECILE 1962-12-23 09:00:00 TS -13.3891 67.2436 main 1258 1234 P________PP___ SH051963 -13.3924 67.2375 22 -1 -13.3924 67.2375 TC 22 -13.4133 67.2426 1 18 5 243
1962350S04089 1963 111 SI MM CECILE 1962-12-23 12:00:00 TS -13.5000 67.0000 main 1234 1202 O________OO___ jtwc_sh SH051963 -13.5000 67.0000 25 -1 -13.5000 67.0000 TC 25 -13.5000 67.0000 1 20 6 250
1962350S04089 1963 111 SI MM CECILE 1962-12-23 15:00:00 TS -13.5937 66.6798 main 1202 1161 P________PP___ SH051963 -13.6000 66.6375 25 -1 -13.6000 66.6375 TC 25 -13.5646 66.6506 1 20 7 254
1962350S04089 1963 111 SI MM CECILE 1962-12-23 18:00:00 TS -13.6903 66.3001 main 1161 1121 O________OP___ jtwc_sh SH051963 -13.7000 66.2000 25 -1 -13.7000 66.2000 TC 25 -13.6402 66.2319 1 20 8 256
1962350S04089 1963 111 SI MM CECILE 1962-12-23 21:00:00 TS -13.7832 65.8973 main 1121 1081 P________PP___ SH051963 -13.7775 65.7573 25 -1 -13.7775 65.7573 TC 25 -13.7458 65.7723 1 20 8 254
1962350S04089 1963 111 SI MM CECILE 1962-12-24 00:00:00 TS -13.9200 65.4600 main 1081 1025 O________OO___ jtwc_sh SH051963 -13.9000 65.3000 25 -1 -13.9000 65.3000 TC 25 -13.9000 65.3000 1 20 10 248
1962350S04089 1963 111 SI MM CECILE 1962-12-24 03:00:00 TS -14.1407 64.9890 main 1025 963 P________PP___ SH051963 -14.1199 64.8500 27 -1 -14.1199 64.8500 TC 27 -14.1368 64.8455 1 21 11 242
1962350S04089 1963 111 SI MM CECILE 1962-12-24 06:00:00 TS -14.4138 64.4942 main 963 900 O________OP___ jtwc_sh SH051963 -14.4000 64.4000 30 -1 -14.4000 64.4000 TC 30 -14.4200 64.3856 1 22 11 240
1962350S04089 1963 111 SI MM CECILE 1962-12-24 09:00:00 TS -14.7114 63.9833 main 900 846 P________PP___ SH051963 -14.7075 63.9351 30 -1 -14.7075 63.9351 TC 30 -14.7181 63.9329 1 23 12 248
1962350S04089 1963 111 SI MM CECILE 1962-12-24 12:00:00 TS -14.8545 63.3545 reunion main 838 786 O____O___OO_O_ jtwc_sh SH051963 -15.0000 63.5000 30 -1 -13.4000 61.9000 4 9.90000 -15.0000 63.5000 TC 30 -15.0000 63.5000 1 25 -13.4000 61.9000 TC 65 12 257
1962350S04089 1963 111 SI MM CECILE 1962-12-24 15:00:00 TS -14.9719 62.8205 main 786 749 P____P___PP_P_ SH051963 -15.2148 63.1423 27 -1 -13.7278 61.4454 4 -15.2148 63.1423 TC 27 -15.1846 63.1024 1 25 -13.7278 61.4454 TC 65 10 255
1962350S04089 1963 111 SI MM CECILE 1962-12-24 18:00:00 TS -15.1180 62.3425 reunion main 742 697 O____O___OP_O_ jtwc_sh SH051963 -15.4000 62.8000 25 -1 -14.1000 61.1000 99 9.90000 -15.4000 62.8000 TC 25 -15.3545 62.7261 1 25 -14.1000 61.1000 TC 65 9 249
1962350S04089 1963 111 SI MM CECILE 1962-12-24 21:00:00 TS -15.3148 61.9169 main 697 651 P____P___PP_P_ SH051963 -15.5700 62.3998 22 -1 -14.5423 60.9272 99 -15.5700 62.3998 TC 22 -15.5472 62.3617 1 25 -14.5423 60.9272 TC 65 9 235
1962350S04089 1963 111 SI MM CECILE 1962-12-25 00:00:00 TS -15.6247 61.6009 reunion main 651 596 O____O___OO_O_ jtwc_sh SH051963 -15.8000 62.0000 20 -1 -15.0000 60.8000 99 9.90000 -15.8000 62.0000 TC 20 -15.8000 62.0000 1 25 -15.0000 60.8000 TC 65 9 223
1962350S04089 1963 111 SI MM CECILE 1962-12-25 03:00:00 TS -15.9906 61.2657 main 596 541 P____P___PP_P_ SH051963 -16.1624 61.6499 17 -1 -15.3926 60.5351 99 -16.1624 61.6499 TC 17 -16.1687 61.5812 1 26 -15.3926 60.5351 TC 65 10 219
1962350S04089 1963 111 SI MM CECILE 1962-12-25 06:00:00 TS -16.4029 60.9469 reunion main 534 486 O____O___OP_O_ jtwc_sh SH051963 -16.6000 61.3000 15 -1 -15.8000 60.3000 99 9.90000 -16.6000 61.3000 TC 15 -16.5979 61.1689 1 27 -15.8000 60.3000 TC 65 11 214
1962350S04089 1963 111 SI MM CECILE 1962-12-25 09:00:00 TS -16.8613 60.6517 main 477 423 P____P___PP_P_ SH051963 -17.0576 60.8777 15 -1 -16.3224 60.2124 99 -17.0576 60.8777 TC 15 -17.0531 60.7969 1 28 -16.3224 60.2124 TC 65 10 210
1962350S04089 1963 111 SI MM CECILE 1962-12-25 12:00:00 TS -17.3000 60.4143 reunion main 423 391 O____O___OO_O_ jtwc_sh SH051963 -17.5000 60.5000 15 -1 -16.8000 60.2000 4 9.90000 -17.5000 60.5000 TC 15 -17.5000 60.5000 1 30 -16.8000 60.2000 TC 65 9 207
1962350S04089 1963 111 SI MM CECILE 1962-12-25 15:00:00 TS -17.6342 60.2452 main 383 360 P____P___PP_P_ SH051963 -17.8574 60.2398 15 -1 -17.0725 60.1925 4 -17.8574 60.2398 TC 15 -17.8889 60.3079 1 27 -17.0725 60.1925 TC 62 7 201
1962350S04089 1963 111 SI MM CECILE 1962-12-25 18:00:00 TS -17.9486 60.1506 reunion main 360 322 O____O___OP_O_ jtwc_sh SH051963 -18.2000 60.1000 15 -1 -17.3000 60.2000 99 9.90000 -18.2000 60.1000 TC 15 -18.2645 60.1940 1 25 -17.3000 60.2000 TC 60 7 190
1962350S04089 1963 111 SI MM CECILE 1962-12-25 21:00:00 TS -18.3169 60.1179 main 322 296 P____P___PP_P_ SH051963 -18.6000 60.0773 15 -1 -17.6275 60.2000 99 -18.6000 60.0773 TC 15 -18.6328 60.1332 1 22 -17.6275 60.2000 TC 60 8 183
1962350S04089 1963 111 SI MM CECILE 1962-12-26 00:00:00 TS -18.7000 60.1143 reunion main 296 279 O____O___OO_O_ jtwc_sh SH051963 -19.0000 60.1000 15 -1 -18.0000 60.2000 99 9.90000 -19.0000 60.1000 TC 15 -19.0000 60.1000 1 20 -18.0000 60.2000 TC 60 8 183
1962350S04089 1963 111 SI MM CECILE 1962-12-26 03:00:00 TS -19.0698 60.0760 main 275 260 P____P___PP_P_ SH051963 -19.3500 60.0501 15 -1 -18.3850 60.1926 99 -19.3500 60.0501 TC 15 -19.3749 60.0332 1 18 -18.3850 60.1926 TC 57 8 184
1962350S04089 1963 111 SI MM CECILE 1962-12-26 06:00:00 TS -19.4500 60.0503 reunion main 260 236 O____O___OP_O_ jtwc_sh SH051963 -19.7000 60.0000 15 -1 -18.8000 60.2000 99 9.90000 -19.7000 60.0000 TC 15 -19.7499 59.9902 1 17 -18.8000 60.2000 TC 55 8 0
1962350S04089 1963 111 SI MM CECILE 1962-12-26 09:00:00 TS -19.8573 60.0534 main 244 240 P____P___PP_P_ SH051963 -20.1000 59.9776 15 -1 -19.2350 60.2425 99 -20.1000 59.9776 TC 15 -20.1249 59.9771 1 16 -19.2350 60.2425 TC 52 8 177
1962350S04089 1963 111 SI MM CECILE 1962-12-26 12:00:00 TS -20.2714 60.0857 reunion main 239 239 O____O___OO_O_ jtwc_sh SH051963 -20.5000 60.0000 15 -1 -19.7000 60.3000 3 9.90000 -20.5000 60.0000 TC 15 -20.5000 60.0000 1 15 -19.7000 60.3000 TC 50 8 174
1962350S04089 1963 111 SI MM CECILE 1962-12-26 15:00:00 TS -20.6687 60.1366 main 243 243 P____P___PP_P_ SH051963 -20.8500 60.0850 15 -1 -20.2000 60.3426 3 -20.8500 60.0850 TC 15 -20.8750 60.0558 1 15 -20.2000 60.3426 TC 47 8 171
1962350S04089 1963 111 SI MM CECILE 1962-12-26 18:00:00 TS -21.0642 60.2105 reunion main 265 265 O____O___OP_O_ jtwc_sh SH051963 -21.2000 60.2000 15 -1 -20.7000 60.4000 99 9.90000 -21.2000 60.2000 TC 15 -21.2500 60.1474 1 15 -20.7000 60.4000 TC 45 8 169
1962350S04089 1963 111 SI MM CECILE 1962-12-26 21:00:00 TS -21.4648 60.2960 main 292 292 P____P___PP_P_ SH051963 -21.6000 60.2926 15 -1 -21.1425 60.5000 99 -21.6000 60.2926 TC 15 -21.6250 60.2653 1 15 -21.1425 60.5000 TC 42 8 168
1962350S04089 1963 111 SI MM CECILE 1962-12-27 00:00:00 TS -21.8714 60.4000 reunion main 320 320 O____O___OO_O_ jtwc_sh SH051963 -22.0000 60.4000 15 -1 -21.6000 60.6000 99 9.90000 -22.0000 60.4000 TC 15 -22.0000 60.4000 1 15 -21.6000 60.6000 TC 40 8 166
1962350S04089 1963 111 SI MM CECILE 1962-12-27 03:00:00 TS -22.2826 60.5196 main 352 352 P____P___PP_P_ SH051963 -22.3500 60.5426 15 -1 -22.1275 60.6502 99 -22.3500 60.5426 TC 15 -22.3790 60.5277 1 15 -22.1275 60.6502 TC 40 9 164
1962350S04089 1963 111 SI MM CECILE 1962-12-27 06:00:00 TS -22.7083 60.6574 reunion main 395 395 O____O___OP_O_ jtwc_sh SH051963 -22.7000 60.7000 15 -1 -22.7000 60.7000 99 9.90000 -22.7000 60.7000 TC 15 -22.7574 60.6703 1 15 -22.7000 60.7000 TC 40 9 163
1962350S04089 1963 111 SI MM CECILE 1962-12-27 09:00:00 TS -23.1626 60.8102 main 439 439 P____P___PP_P_ SH051963 -23.1000 60.8426 15 -1 -23.3000 60.7999 99 -23.1000 60.8426 TC 15 -23.1321 60.8278 1 15 -23.3000 60.7999 TC 40 10 162
1962350S04089 1963 111 SI MM CECILE 1962-12-27 12:00:00 TS -23.6143 60.9714 reunion main 485 485 O____O___OO_O_ jtwc_sh SH051963 -23.5000 61.0000 15 -1 -23.9000 60.9000 6 9.90000 -23.5000 61.0000 TC 15 -23.5000 61.0000 1 15 -23.9000 60.9000 TC 40 9 161
1962350S04089 1963 111 SI MM CECILE 1962-12-27 15:00:00 TS -24.0247 61.1286 main 524 524 P____P___PP_P_ SH051963 -23.8575 61.1926 15 -1 -24.4500 60.9503 6 -23.8575 61.1926 TC 15 -23.8286 61.1664 1 -24.4500 60.9503 TC 40 9 161
1962350S04089 1963 111 SI MM CECILE 1962-12-27 18:00:00 TS -24.4331 61.2834 reunion main 571 571 O____O___OP_O_ jtwc_sh SH051963 -24.2000 61.4000 15 -1 -25.0000 61.0000 99 9.90000 -24.2000 61.4000 TC 15 -24.1547 61.3492 1 -25.0000 61.0000 TC 40 9 161
1962350S04089 1963 111 SI MM CECILE 1962-12-27 21:00:00 TS -24.8521 61.4402 main 621 621 P____P___PP_P_ SH051963 -24.5274 61.5854 15 -1 -25.5850 61.0999 99 -24.5274 61.5854 TC 15 -24.5035 61.5573 1 -25.5850 61.0999 TC 40 9 161
1962350S04089 1963 111 SI MM CECILE 1962-12-28 00:00:00 TS -25.3160 61.6120 reunion main 668 668 O____O___OO_O_ jtwc_sh SH051963 -24.9000 61.8000 15 -1 -26.2000 61.2000 99 9.90000 -24.9000 61.8000 TC 15 -24.9000 61.8000 1 -26.2000 61.2000 TC 40 11 162
1962350S04089 1963 111 SI MM CECILE 1962-12-28 03:00:00 TS -25.8612 61.8094 main 734 734 P____P___PP_P_ SH051963 -25.3700 62.0776 -1 -26.8350 61.2577 99 -25.3700 62.0776 TC -25.3873 62.1082 1 -26.8350 61.2577 TC 40 11 156
1962350S04089 1963 111 SI MM CECILE 1962-12-28 06:00:00 MX -26.3401 62.1088 reunion main 788 788 O____O___OP_O_ jtwc_sh SH051963 -25.9000 62.4000 -1 -27.5000 61.3000 99 9.90000 -25.9000 62.4000 TC -25.9206 62.4483 1 -27.5000 61.3000 EX 40 11 147
1962350S04089 1963 111 SI MM CECILE 1962-12-28 09:00:00 MX -26.8068 62.4818 main 856 856 P____P___PP_P_ SH051963 -26.4576 62.7573 -1 -28.1925 61.3473 99 -26.4576 62.7573 TC -26.4686 62.7895 1 -28.1925 61.3473 EX 40 11 141
1962350S04089 1963 111 SI MM CECILE 1962-12-28 12:00:00 MX -27.2111 62.9111 reunion main 916 916 O____O___OO_O_ jtwc_sh SH051963 -27.0000 63.1000 -1 -28.9000 61.4000 5 9.90000 -27.0000 63.1000 TC -27.0000 63.1000 1 -28.9000 61.4000 EX 40 10 130
1962350S04089 1963 111 SI MM CECILE 1962-12-28 15:00:00 TS -27.4715 63.3741 main 972 972 P________PP___ SH051963 -27.4649 63.3803 -1 5 -27.4649 63.3803 TC -27.4912 63.3554 1 EX 9 139
1962350S04089 1963 111 SI MM CECILE 1962-12-28 18:00:00 TS -27.9118 63.5908 main 1020 1020 O________OP___ jtwc_sh SH051963 -27.9000 63.6000 -1 -27.9000 63.6000 TC -27.9470 63.5631 1 9 159
1962350S04089 1963 111 SI MM CECILE 1962-12-28 21:00:00 TS -28.3536 63.7584 main 1076 1076 P________PP___ SH051963 -28.3450 63.7648 -1 -28.3450 63.7648 TC -28.3794 63.7392 1 9 163
1962350S04089 1963 111 SI MM CECILE 1962-12-29 00:00:00 TS -28.8000 63.9000 main 1118 O________OO___ jtwc_sh SH051963 -28.8000 63.9000 -1 -28.8000 63.9000 TC -28.8000 63.9000 1 9 165

About IBTrACS Database

This database is a web-friendly format of International Best Track Archive for Climate Stewardship (IBTrACS), a global best track data archive curated by NOAA dating back to 1842.

Updated: 2021-10-21